Niter, Idaho
Current Conditions -  °F | °C
As of 1:35 AM on Saturday 22 Nov 2014 (Local Time) from KAFO Reporting Station
Scattered Clouds Scattered Clouds  
Wind Chill: -2°   Ceiling: Unl
Heat Index:   Visibility: 10mi
Dew Point: -5°   Wind: 9mph
Humidity: 60%   Direction: 150°SSE
Pressure: 29.9"   Gusts: NA
Location:  42.5232°N, 111.761°W
Report Text: KAFO 220835Z AUTO 15008KT 10SM SCT080 02/M05 A2990 RMK AO2
Loading
Personal Weather Stations






























Interactive Weather Map New forecast layout! Learn more

10-Day Weather Forecast

Advertisements
Track Severe Weather on mobile